sensor_id;sensor_type;location;lat;lon;timestamp;temperature;humidity
18103;DHT22;9178;51.120;6.192;2022-12-16T00:00:12;-6.60;99.90
18103;DHT22;9178;51.120;6.192;2022-12-16T00:02:40;-6.60;99.90
18103;DHT22;9178;51.120;6.192;2022-12-16T00:05:08;-6.70;99.90
18103;DHT22;9178;51.120;6.192;2022-12-16T00:07:35;-6.70;99.90
18103;DHT22;9178;51.120;6.192;2022-12-16T00:10:02;-6.70;99.90
18103;DHT22;9178;51.120;6.192;2022-12-16T00:12:29;-6.70;99.90
18103;DHT22;9178;51.120;6.192;2022-12-16T00:14:55;-6.70;99.90
18103;DHT22;9178;51.120;6.192;2022-12-16T00:17:22;-6.70;99.90
18103;DHT22;9178;51.120;6.192;2022-12-16T00:19:49;-6.70;99.90
18103;DHT22;9178;51.120;6.192;2022-12-16T00:22:17;-6.70;99.90
18103;DHT22;9178;51.120;6.192;2022-12-16T00:24:44;-6.70;99.90
18103;DHT22;9178;51.120;6.192;2022-12-16T00:27:10;-6.70;99.90
18103;DHT22;9178;51.120;6.192;2022-12-16T00:29:37;-6.70;99.90
18103;DHT22;9178;51.120;6.192;2022-12-16T00:32:04;-6.70;99.90
18103;DHT22;9178;51.120;6.192;2022-12-16T00:34:31;-6.80;99.90
18103;DHT22;9178;51.120;6.192;2022-12-16T00:36:58;-6.80;99.90
18103;DHT22;9178;51.120;6.192;2022-12-16T00:39:26;-6.90;99.90
18103;DHT22;9178;51.120;6.192;2022-12-16T00:41:53;-6.90;99.90
18103;DHT22;9178;51.120;6.192;2022-12-16T00:44:19;-6.90;99.90
18103;DHT22;9178;51.120;6.192;2022-12-16T00:46:46;-6.90;99.90
18103;DHT22;9178;51.120;6.192;2022-12-16T00:49:13;-6.90;99.90
18103;DHT22;9178;51.120;6.192;2022-12-16T00:51:40;-7.00;99.90
18103;DHT22;9178;51.120;6.192;2022-12-16T00:54:06;-7.00;99.90
18103;DHT22;9178;51.120;6.192;2022-12-16T00:56:35;-7.00;99.90
18103;DHT22;9178;51.120;6.192;2022-12-16T00:59:01;-7.00;99.90
18103;DHT22;9178;51.120;6.192;2022-12-16T01:01:28;-7.10;99.90
18103;DHT22;9178;51.120;6.192;2022-12-16T01:03:55;-7.10;99.90
18103;DHT22;9178;51.120;6.192;2022-12-16T01:06:23;-7.10;99.90
18103;DHT22;9178;51.120;6.192;2022-12-16T01:08:49;-7.10;99.90
18103;DHT22;9178;51.120;6.192;2022-12-16T01:11:17;-7.10;99.90
18103;DHT22;9178;51.120;6.192;2022-12-16T01:13:49;-7.10;99.90
18103;DHT22;9178;51.120;6.192;2022-12-16T01:16:16;-7.10;99.90
18103;DHT22;9178;51.120;6.192;2022-12-16T01:18:43;-7.10;99.90
18103;DHT22;9178;51.120;6.192;2022-12-16T01:21:12;-7.10;99.90
18103;DHT22;9178;51.120;6.192;2022-12-16T01:23:39;-7.10;99.90
18103;DHT22;9178;51.120;6.192;2022-12-16T01:26:06;-7.10;99.90
18103;DHT22;9178;51.120;6.192;2022-12-16T01:28:33;-7.10;99.90
18103;DHT22;9178;51.120;6.192;2022-12-16T01:31:01;-7.10;99.90
18103;DHT22;9178;51.120;6.192;2022-12-16T01:33:28;-7.20;99.90
18103;DHT22;9178;51.120;6.192;2022-12-16T01:35:59;-7.10;99.90
18103;DHT22;9178;51.120;6.192;2022-12-16T01:38:26;-7.10;99.90
18103;DHT22;9178;51.120;6.192;2022-12-16T01:40:53;-7.10;99.90
18103;DHT22;9178;51.120;6.192;2022-12-16T01:43:23;-7.10;99.90
18103;DHT22;9178;51.120;6.192;2022-12-16T01:45:51;-7.10;99.90
18103;DHT22;9178;51.120;6.192;2022-12-16T01:48:28;-7.10;99.90
18103;DHT22;9178;51.120;6.192;2022-12-16T01:51:00;-7.10;99.90
18103;DHT22;9178;51.120;6.192;2022-12-16T01:53:29;-7.10;99.90
18103;DHT22;9178;51.120;6.192;2022-12-16T01:55:57;-7.00;99.90
18103;DHT22;9178;51.120;6.192;2022-12-16T01:58:27;-7.00;99.90
18103;DHT22;9178;51.120;6.192;2022-12-16T02:00:55;-7.10;99.90
18103;DHT22;9178;51.120;6.192;2022-12-16T02:03:24;-7.10;99.90
18103;DHT22;9178;51.120;6.192;2022-12-16T02:05:51;-7.10;99.90
18103;DHT22;9178;51.120;6.192;2022-12-16T02:08:19;-7.10;99.90
18103;DHT22;9178;51.120;6.192;2022-12-16T02:10:56;-7.10;99.90
18103;DHT22;9178;51.120;6.192;2022-12-16T02:13:34;-7.10;99.90
18103;DHT22;9178;51.120;6.192;2022-12-16T02:16:10;-7.10;99.90
18103;DHT22;9178;51.120;6.192;2022-12-16T02:18:49;-7.10;99.90
18103;DHT22;9178;51.120;6.192;2022-12-16T02:21:33;-7.10;99.90
18103;DHT22;9178;51.120;6.192;2022-12-16T02:27:37;-7.10;99.90
18103;DHT22;9178;51.120;6.192;2022-12-16T02:33:06;-7.20;99.90
18103;DHT22;9178;51.120;6.192;2022-12-16T02:35:40;-7.20;99.90
18103;DHT22;9178;51.120;6.192;2022-12-16T02:38:19;-7.20;99.90
18103;DHT22;9178;51.120;6.192;2022-12-16T02:40:51;-7.20;99.90
18103;DHT22;9178;51.120;6.192;2022-12-16T02:43:33;-7.20;99.90
18103;DHT22;9178;51.120;6.192;2022-12-16T02:46:06;-7.30;99.90
18103;DHT22;9178;51.120;6.192;2022-12-16T02:48:35;-7.20;99.90
18103;DHT22;9178;51.120;6.192;2022-12-16T02:51:02;-7.20;99.90
18103;DHT22;9178;51.120;6.192;2022-12-16T02:53:30;-7.20;99.90
18103;DHT22;9178;51.120;6.192;2022-12-16T02:56:04;-7.20;99.90
18103;DHT22;9178;51.120;6.192;2022-12-16T02:58:37;-7.20;99.90
18103;DHT22;9178;51.120;6.192;2022-12-16T03:01:12;-7.20;99.90
18103;DHT22;9178;51.120;6.192;2022-12-16T03:03:47;-7.20;99.90
18103;DHT22;9178;51.120;6.192;2022-12-16T03:06:18;-7.20;99.90
18103;DHT22;9178;51.120;6.192;2022-12-16T03:08:48;-7.20;99.90
18103;DHT22;9178;51.120;6.192;2022-12-16T03:11:16;-7.30;99.90
18103;DHT22;9178;51.120;6.192;2022-12-16T03:13:49;-7.40;99.90
18103;DHT22;9178;51.120;6.192;2022-12-16T03:16:18;-7.40;99.90
18103;DHT22;9178;51.120;6.192;2022-12-16T03:18:51;-7.40;99.90
18103;DHT22;9178;51.120;6.192;2022-12-16T03:21:20;-7.40;99.90
18103;DHT22;9178;51.120;6.192;2022-12-16T03:23:52;-7.40;99.90
18103;DHT22;9178;51.120;6.192;2022-12-16T03:26:23;-7.40;99.90
18103;DHT22;9178;51.120;6.192;2022-12-16T03:28:56;-7.40;99.90
18103;DHT22;9178;51.120;6.192;2022-12-16T03:31:29;-7.40;99.90
18103;DHT22;9178;51.120;6.192;2022-12-16T03:34:04;-7.30;99.90
18103;DHT22;9178;51.120;6.192;2022-12-16T03:36:34;-7.30;99.90
18103;DHT22;9178;51.120;6.192;2022-12-16T03:39:03;-7.40;99.90
18103;DHT22;9178;51.120;6.192;2022-12-16T03:41:33;-7.40;99.90
18103;DHT22;9178;51.120;6.192;2022-12-16T03:44:00;-7.40;99.90
18103;DHT22;9178;51.120;6.192;2022-12-16T03:46:27;-7.40;99.90
18103;DHT22;9178;51.120;6.192;2022-12-16T03:48:54;-7.40;99.90
18103;DHT22;9178;51.120;6.192;2022-12-16T03:51:23;-7.40;99.90
18103;DHT22;9178;51.120;6.192;2022-12-16T03:53:49;-7.40;99.90
18103;DHT22;9178;51.120;6.192;2022-12-16T03:56:16;-7.40;99.90
18103;DHT22;9178;51.120;6.192;2022-12-16T03:58:43;-7.40;99.90
18103;DHT22;9178;51.120;6.192;2022-12-16T04:01:11;-7.40;99.90
18103;DHT22;9178;51.120;6.192;2022-12-16T04:03:38;-7.40;99.90
18103;DHT22;9178;51.120;6.192;2022-12-16T04:06:05;-7.50;99.90
18103;DHT22;9178;51.120;6.192;2022-12-16T04:08:33;-7.40;99.90
18103;DHT22;9178;51.120;6.192;2022-12-16T04:11:00;-7.50;99.90
18103;DHT22;9178;51.120;6.192;2022-12-16T04:13:44;-7.50;99.90
18103;DHT22;9178;51.120;6.192;2022-12-16T04:16:29;-7.40;99.90
18103;DHT22;9178;51.120;6.192;2022-12-16T04:19:21;-7.40;99.90
18103;DHT22;9178;51.120;6.192;2022-12-16T04:22:11;-7.40;99.90
18103;DHT22;9178;51.120;6.192;2022-12-16T04:25:00;-7.40;99.90
18103;DHT22;9178;51.120;6.192;2022-12-16T04:27:27;-7.40;99.90
18103;DHT22;9178;51.120;6.192;2022-12-16T04:29:54;-7.40;99.90
18103;DHT22;9178;51.120;6.192;2022-12-16T04:32:39;-7.40;99.90
18103;DHT22;9178;51.120;6.192;2022-12-16T04:35:23;-7.30;99.90
18103;DHT22;9178;51.120;6.192;2022-12-16T04:38:08;-7.40;99.90
18103;DHT22;9178;51.120;6.192;2022-12-16T04:40:53;-7.40;99.90
18103;DHT22;9178;51.120;6.192;2022-12-16T04:43:34;-7.40;99.90
18103;DHT22;9178;51.120;6.192;2022-12-16T04:46:18;-7.40;99.90
18103;DHT22;9178;51.120;6.192;2022-12-16T04:49:02;-7.40;99.90
18103;DHT22;9178;51.120;6.192;2022-12-16T04:51:47;-7.40;99.90
18103;DHT22;9178;51.120;6.192;2022-12-16T04:54:31;-7.40;99.90
18103;DHT22;9178;51.120;6.192;2022-12-16T04:57:16;-7.40;99.90
18103;DHT22;9178;51.120;6.192;2022-12-16T05:00:01;-7.40;99.90
18103;DHT22;9178;51.120;6.192;2022-12-16T05:02:47;-7.40;99.90
18103;DHT22;9178;51.120;6.192;2022-12-16T05:05:31;-7.40;99.90
18103;DHT22;9178;51.120;6.192;2022-12-16T05:08:16;-7.40;99.90
18103;DHT22;9178;51.120;6.192;2022-12-16T05:11:00;-7.40;99.90
18103;DHT22;9178;51.120;6.192;2022-12-16T05:13:45;-7.40;99.90
18103;DHT22;9178;51.120;6.192;2022-12-16T05:16:29;-7.50;99.90
18103;DHT22;9178;51.120;6.192;2022-12-16T05:19:14;-7.50;99.90
18103;DHT22;9178;51.120;6.192;2022-12-16T05:21:58;-7.50;99.90
18103;DHT22;9178;51.120;6.192;2022-12-16T05:24:43;-7.40;99.90
18103;DHT22;9178;51.120;6.192;2022-12-16T05:27:27;-7.40;99.90
18103;DHT22;9178;51.120;6.192;2022-12-16T05:30:13;-7.50;99.90
18103;DHT22;9178;51.120;6.192;2022-12-16T05:32:57;-7.50;99.90
18103;DHT22;9178;51.120;6.192;2022-12-16T05:35:41;-7.50;99.90
18103;DHT22;9178;51.120;6.192;2022-12-16T05:38:25;-7.50;99.90
18103;DHT22;9178;51.120;6.192;2022-12-16T05:41:09;-7.50;99.90
18103;DHT22;9178;51.120;6.192;2022-12-16T05:43:54;-7.50;99.90
18103;DHT22;9178;51.120;6.192;2022-12-16T05:46:39;-7.50;99.90
18103;DHT22;9178;51.120;6.192;2022-12-16T05:49:24;-7.50;99.90
18103;DHT22;9178;51.120;6.192;2022-12-16T05:52:08;-7.50;99.90
18103;DHT22;9178;51.120;6.192;2022-12-16T05:54:52;-7.50;99.90
18103;DHT22;9178;51.120;6.192;2022-12-16T05:57:36;-7.50;99.90
18103;DHT22;9178;51.120;6.192;2022-12-16T06:00:21;-7.50;99.90
18103;DHT22;9178;51.120;6.192;2022-12-16T06:03:06;-7.50;99.90
18103;DHT22;9178;51.120;6.192;2022-12-16T06:05:51;-7.50;99.90
18103;DHT22;9178;51.120;6.192;2022-12-16T06:08:35;-7.50;99.90
18103;DHT22;9178;51.120;6.192;2022-12-16T06:11:19;-7.50;99.90
18103;DHT22;9178;51.120;6.192;2022-12-16T06:14:03;-7.50;99.90
18103;DHT22;9178;51.120;6.192;2022-12-16T06:16:48;-7.40;99.90
18103;DHT22;9178;51.120;6.192;2022-12-16T06:19:33;-7.40;99.90
18103;DHT22;9178;51.120;6.192;2022-12-16T06:22:18;-7.30;99.90
18103;DHT22;9178;51.120;6.192;2022-12-16T06:25:02;-7.20;99.90
18103;DHT22;9178;51.120;6.192;2022-12-16T06:27:49;-7.10;99.90
18103;DHT22;9178;51.120;6.192;2022-12-16T06:30:43;-7.00;99.90
18103;DHT22;9178;51.120;6.192;2022-12-16T06:33:27;-6.80;99.90
18103;DHT22;9178;51.120;6.192;2022-12-16T06:36:13;-6.70;99.90
18103;DHT22;9178;51.120;6.192;2022-12-16T06:38:58;-6.60;99.90
18103;DHT22;9178;51.120;6.192;2022-12-16T06:41:42;-6.50;99.90
18103;DHT22;9178;51.120;6.192;2022-12-16T06:44:26;-6.40;99.90
18103;DHT22;9178;51.120;6.192;2022-12-16T06:47:10;-6.30;99.90
18103;DHT22;9178;51.120;6.192;2022-12-16T06:49:55;-6.20;99.90
18103;DHT22;9178;51.120;6.192;2022-12-16T06:52:41;-6.10;99.90
18103;DHT22;9178;51.120;6.192;2022-12-16T06:55:26;-6.00;99.90
18103;DHT22;9178;51.120;6.192;2022-12-16T06:58:10;-5.90;99.90
18103;DHT22;9178;51.120;6.192;2022-12-16T07:00:54;-5.80;99.90
18103;DHT22;9178;51.120;6.192;2022-12-16T07:03:39;-5.70;99.90
18103;DHT22;9178;51.120;6.192;2022-12-16T07:06:22;-5.70;99.90
18103;DHT22;9178;51.120;6.192;2022-12-16T07:09:08;-5.60;99.90
18103;DHT22;9178;51.120;6.192;2022-12-16T07:11:52;-5.50;99.90
18103;DHT22;9178;51.120;6.192;2022-12-16T07:14:37;-5.40;99.90
18103;DHT22;9178;51.120;6.192;2022-12-16T07:17:21;-5.30;99.90
18103;DHT22;9178;51.120;6.192;2022-12-16T07:20:06;-5.20;99.90
18103;DHT22;9178;51.120;6.192;2022-12-16T07:22:51;-5.10;99.90
18103;DHT22;9178;51.120;6.192;2022-12-16T07:25:37;-5.00;99.90
18103;DHT22;9178;51.120;6.192;2022-12-16T07:28:21;-4.90;99.90
18103;DHT22;9178;51.120;6.192;2022-12-16T07:31:05;-4.90;99.90
18103;DHT22;9178;51.120;6.192;2022-12-16T07:33:49;-4.80;99.90
18103;DHT22;9178;51.120;6.192;2022-12-16T07:36:34;-4.70;99.90
18103;DHT22;9178;51.120;6.192;2022-12-16T07:39:18;-4.60;99.90
18103;DHT22;9178;51.120;6.192;2022-12-16T07:42:04;-4.50;99.90
18103;DHT22;9178;51.120;6.192;2022-12-16T07:44:48;-4.50;99.90
18103;DHT22;9178;51.120;6.192;2022-12-16T07:47:32;-4.40;99.90
18103;DHT22;9178;51.120;6.192;2022-12-16T07:50:17;-4.40;99.90
18103;DHT22;9178;51.120;6.192;2022-12-16T07:53:01;-4.30;99.90
18103;DHT22;9178;51.120;6.192;2022-12-16T07:55:45;-4.20;99.90
18103;DHT22;9178;51.120;6.192;2022-12-16T07:58:31;-4.20;99.90
18103;DHT22;9178;51.120;6.192;2022-12-16T08:01:15;-4.10;99.90
18103;DHT22;9178;51.120;6.192;2022-12-16T08:04:00;-4.00;99.90
18103;DHT22;9178;51.120;6.192;2022-12-16T08:06:44;-4.00;99.90
18103;DHT22;9178;51.120;6.192;2022-12-16T08:09:28;-3.90;99.90
18103;DHT22;9178;51.120;6.192;2022-12-16T08:12:13;-3.80;99.90
18103;DHT22;9178;51.120;6.192;2022-12-16T08:14:59;-3.80;99.90
18103;DHT22;9178;51.120;6.192;2022-12-16T08:17:47;-3.80;99.90
18103;DHT22;9178;51.120;6.192;2022-12-16T08:20:32;-3.70;99.90
18103;DHT22;9178;51.120;6.192;2022-12-16T08:23:16;-3.60;99.90
18103;DHT22;9178;51.120;6.192;2022-12-16T08:26:00;-3.60;99.90
18103;DHT22;9178;51.120;6.192;2022-12-16T08:28:45;-3.50;99.90
18103;DHT22;9178;51.120;6.192;2022-12-16T08:31:29;-3.50;99.90
18103;DHT22;9178;51.120;6.192;2022-12-16T08:34:14;-3.40;99.90
18103;DHT22;9178;51.120;6.192;2022-12-16T08:36:58;-3.40;99.90
18103;DHT22;9178;51.120;6.192;2022-12-16T08:39:43;-3.30;99.90
18103;DHT22;9178;51.120;6.192;2022-12-16T08:42:28;-3.30;99.90
18103;DHT22;9178;51.120;6.192;2022-12-16T08:45:13;-3.20;99.90
18103;DHT22;9178;51.120;6.192;2022-12-16T08:47:59;-3.20;99.90
18103;DHT22;9178;51.120;6.192;2022-12-16T08:50:43;-3.10;99.90
18103;DHT22;9178;51.120;6.192;2022-12-16T08:53:27;-3.10;99.90
18103;DHT22;9178;51.120;6.192;2022-12-16T08:56:12;-3.00;99.90
18103;DHT22;9178;51.120;6.192;2022-12-16T08:59:11;-3.00;99.90
18103;DHT22;9178;51.120;6.192;2022-12-16T09:01:55;-2.90;99.90
18103;DHT22;9178;51.120;6.192;2022-12-16T09:04:40;-2.90;99.90
18103;DHT22;9178;51.120;6.192;2022-12-16T09:07:24;-2.80;99.90
18103;DHT22;9178;51.120;6.192;2022-12-16T09:10:09;-2.80;99.90
18103;DHT22;9178;51.120;6.192;2022-12-16T09:12:53;-2.80;99.90
18103;DHT22;9178;51.120;6.192;2022-12-16T09:15:37;-2.80;99.90
18103;DHT22;9178;51.120;6.192;2022-12-16T09:18:22;-2.80;99.90
18103;DHT22;9178;51.120;6.192;2022-12-16T09:21:07;-2.80;99.90
18103;DHT22;9178;51.120;6.192;2022-12-16T09:23:51;-2.80;99.90
18103;DHT22;9178;51.120;6.192;2022-12-16T09:26:35;-2.70;99.90
18103;DHT22;9178;51.120;6.192;2022-12-16T09:29:20;-2.70;99.90
18103;DHT22;9178;51.120;6.192;2022-12-16T09:32:05;-2.60;99.90
18103;DHT22;9178;51.120;6.192;2022-12-16T09:34:50;-2.60;99.90
18103;DHT22;9178;51.120;6.192;2022-12-16T09:37:35;-2.60;99.90
18103;DHT22;9178;51.120;6.192;2022-12-16T09:40:23;-2.60;99.90
18103;DHT22;9178;51.120;6.192;2022-12-16T09:43:16;-2.50;99.90
18103;DHT22;9178;51.120;6.192;2022-12-16T09:46:15;-2.40;99.90
18103;DHT22;9178;51.120;6.192;2022-12-16T09:49:11;-2.40;99.90
18103;DHT22;9178;51.120;6.192;2022-12-16T09:51:58;-2.40;99.90
18103;DHT22;9178;51.120;6.192;2022-12-16T09:54:45;-2.40;99.90
18103;DHT22;9178;51.120;6.192;2022-12-16T09:57:31;-2.40;99.90
18103;DHT22;9178;51.120;6.192;2022-12-16T10:00:20;-2.30;99.90
18103;DHT22;9178;51.120;6.192;2022-12-16T10:03:12;-2.30;99.90
18103;DHT22;9178;51.120;6.192;2022-12-16T10:06:02;-2.30;99.90
18103;DHT22;9178;51.120;6.192;2022-12-16T10:08:52;-2.20;99.90
18103;DHT22;9178;51.120;6.192;2022-12-16T10:11:46;-2.10;99.90
18103;DHT22;9178;51.120;6.192;2022-12-16T10:14:38;-2.10;99.90
18103;DHT22;9178;51.120;6.192;2022-12-16T10:17:25;-2.10;99.90
18103;DHT22;9178;51.120;6.192;2022-12-16T10:20:23;-2.00;99.90
18103;DHT22;9178;51.120;6.192;2022-12-16T10:23:19;-2.00;99.90
18103;DHT22;9178;51.120;6.192;2022-12-16T10:26:16;-2.00;99.90
18103;DHT22;9178;51.120;6.192;2022-12-16T10:29:11;-2.00;99.90
18103;DHT22;9178;51.120;6.192;2022-12-16T10:31:58;-2.00;99.90
18103;DHT22;9178;51.120;6.192;2022-12-16T10:34:43;-1.90;99.90
18103;DHT22;9178;51.120;6.192;2022-12-16T10:37:32;-1.90;99.90
18103;DHT22;9178;51.120;6.192;2022-12-16T10:40:18;-1.90;99.90
18103;DHT22;9178;51.120;6.192;2022-12-16T10:43:10;-1.90;99.90
18103;DHT22;9178;51.120;6.192;2022-12-16T10:45:58;-1.80;99.90
18103;DHT22;9178;51.120;6.192;2022-12-16T10:48:42;-1.80;99.90
18103;DHT22;9178;51.120;6.192;2022-12-16T10:51:28;-1.80;99.90
18103;DHT22;9178;51.120;6.192;2022-12-16T10:54:31;-1.80;99.90
18103;DHT22;9178;51.120;6.192;2022-12-16T10:57:26;-1.70;99.90
18103;DHT22;9178;51.120;6.192;2022-12-16T11:00:14;-1.70;99.90
18103;DHT22;9178;51.120;6.192;2022-12-16T11:03:19;-1.70;99.90
18103;DHT22;9178;51.120;6.192;2022-12-16T11:06:05;-1.70;99.90
18103;DHT22;9178;51.120;6.192;2022-12-16T11:08:50;-1.70;99.90
18103;DHT22;9178;51.120;6.192;2022-12-16T11:11:35;-1.70;99.90
18103;DHT22;9178;51.120;6.192;2022-12-16T11:14:23;-1.60;99.90
18103;DHT22;9178;51.120;6.192;2022-12-16T11:17:14;-1.60;99.90
18103;DHT22;9178;51.120;6.192;2022-12-16T11:20:14;-1.60;99.90
18103;DHT22;9178;51.120;6.192;2022-12-16T11:23:14;-1.60;99.90
18103;DHT22;9178;51.120;6.192;2022-12-16T11:26:10;-1.50;99.90
18103;DHT22;9178;51.120;6.192;2022-12-16T11:29:08;-1.50;99.90
18103;DHT22;9178;51.120;6.192;2022-12-16T11:31:59;-1.50;99.90
18103;DHT22;9178;51.120;6.192;2022-12-16T11:34:50;-1.50;99.90
18103;DHT22;9178;51.120;6.192;2022-12-16T11:37:37;-1.40;99.90
18103;DHT22;9178;51.120;6.192;2022-12-16T11:40:23;-1.40;99.90
18103;DHT22;9178;51.120;6.192;2022-12-16T11:43:10;-1.30;99.90
18103;DHT22;9178;51.120;6.192;2022-12-16T11:45:56;-1.30;99.90
18103;DHT22;9178;51.120;6.192;2022-12-16T11:48:44;-1.30;99.90
18103;DHT22;9178;51.120;6.192;2022-12-16T11:51:32;-1.20;99.90
18103;DHT22;9178;51.120;6.192;2022-12-16T11:54:22;-1.20;99.90
18103;DHT22;9178;51.120;6.192;2022-12-16T11:57:16;-1.10;99.90
18103;DHT22;9178;51.120;6.192;2022-12-16T12:00:04;-1.10;99.90
18103;DHT22;9178;51.120;6.192;2022-12-16T12:02:53;-1.10;99.90
18103;DHT22;9178;51.120;6.192;2022-12-16T12:05:43;-1.10;99.90
18103;DHT22;9178;51.120;6.192;2022-12-16T12:08:34;-1.10;99.90
18103;DHT22;9178;51.120;6.192;2022-12-16T12:11:22;-1.00;99.90
18103;DHT22;9178;51.120;6.192;2022-12-16T12:14:14;-0.90;99.90
18103;DHT22;9178;51.120;6.192;2022-12-16T12:17:07;-0.90;99.90
18103;DHT22;9178;51.120;6.192;2022-12-16T12:20:09;-0.80;99.90
18103;DHT22;9178;51.120;6.192;2022-12-16T12:23:06;-0.80;99.90
18103;DHT22;9178;51.120;6.192;2022-12-16T12:25:55;-0.80;99.90
18103;DHT22;9178;51.120;6.192;2022-12-16T12:28:50;-0.80;99.90
18103;DHT22;9178;51.120;6.192;2022-12-16T12:31:43;-0.70;99.90
18103;DHT22;9178;51.120;6.192;2022-12-16T12:34:34;-0.70;99.90
18103;DHT22;9178;51.120;6.192;2022-12-16T12:37:24;-0.70;99.90
18103;DHT22;9178;51.120;6.192;2022-12-16T12:40:19;-0.60;99.90
18103;DHT22;9178;51.120;6.192;2022-12-16T12:43:13;-0.60;99.90
18103;DHT22;9178;51.120;6.192;2022-12-16T12:46:06;-0.50;99.90
18103;DHT22;9178;51.120;6.192;2022-12-16T12:48:58;-0.50;99.90
18103;DHT22;9178;51.120;6.192;2022-12-16T12:51:53;-0.50;99.90
18103;DHT22;9178;51.120;6.192;2022-12-16T12:54:43;-0.50;99.90
18103;DHT22;9178;51.120;6.192;2022-12-16T12:57:35;-0.50;99.90
18103;DHT22;9178;51.120;6.192;2022-12-16T13:00:20;-0.50;99.90
18103;DHT22;9178;51.120;6.192;2022-12-16T13:03:14;-0.40;99.90
18103;DHT22;9178;51.120;6.192;2022-12-16T13:05:59;-0.40;99.90
18103;DHT22;9178;51.120;6.192;2022-12-16T13:08:55;-0.40;99.90
18103;DHT22;9178;51.120;6.192;2022-12-16T13:12:18;-0.40;99.90
18103;DHT22;9178;51.120;6.192;2022-12-16T13:15:04;-0.40;99.90
18103;DHT22;9178;51.120;6.192;2022-12-16T13:21:49;-0.40;99.90
18103;DHT22;9178;51.120;6.192;2022-12-16T13:24:47;-0.40;99.90
18103;DHT22;9178;51.120;6.192;2022-12-16T13:27:47;-0.30;99.90
18103;DHT22;9178;51.120;6.192;2022-12-16T13:30:33;-0.40;99.90
18103;DHT22;9178;51.120;6.192;2022-12-16T13:33:24;-0.30;99.90
18103;DHT22;9178;51.120;6.192;2022-12-16T13:36:10;-0.30;99.90
18103;DHT22;9178;51.120;6.192;2022-12-16T13:39:01;-0.30;99.90
18103;DHT22;9178;51.120;6.192;2022-12-16T13:41:50;-0.30;99.90
18103;DHT22;9178;51.120;6.192;2022-12-16T13:44:55;-0.20;99.90
18103;DHT22;9178;51.120;6.192;2022-12-16T13:48:01;-0.20;99.90
18103;DHT22;9178;51.120;6.192;2022-12-16T13:50:48;-0.20;99.90
18103;DHT22;9178;51.120;6.192;2022-12-16T13:53:35;-0.30;99.90
18103;DHT22;9178;51.120;6.192;2022-12-16T13:56:25;-0.30;99.90
18103;DHT22;9178;51.120;6.192;2022-12-16T13:59:16;-0.30;99.90
18103;DHT22;9178;51.120;6.192;2022-12-16T14:02:23;-0.30;99.90
18103;DHT22;9178;51.120;6.192;2022-12-16T14:05:16;-0.20;99.90
18103;DHT22;9178;51.120;6.192;2022-12-16T14:08:04;-0.20;99.90
18103;DHT22;9178;51.120;6.192;2022-12-16T14:10:56;-0.30;99.90
18103;DHT22;9178;51.120;6.192;2022-12-16T14:13:47;-0.30;99.90
18103;DHT22;9178;51.120;6.192;2022-12-16T14:16:40;-0.40;99.90
18103;DHT22;9178;51.120;6.192;2022-12-16T14:19:33;-0.30;99.90
18103;DHT22;9178;51.120;6.192;2022-12-16T14:22:29;-0.30;99.90
18103;DHT22;9178;51.120;6.192;2022-12-16T14:25:18;-0.30;99.90
18103;DHT22;9178;51.120;6.192;2022-12-16T14:28:07;-0.30;99.90
18103;DHT22;9178;51.120;6.192;2022-12-16T14:31:03;-0.30;99.90
18103;DHT22;9178;51.120;6.192;2022-12-16T14:33:51;-0.40;99.90
18103;DHT22;9178;51.120;6.192;2022-12-16T14:36:38;-0.40;99.90
18103;DHT22;9178;51.120;6.192;2022-12-16T14:39:34;-0.40;99.90
18103;DHT22;9178;51.120;6.192;2022-12-16T14:42:23;-0.40;99.90
18103;DHT22;9178;51.120;6.192;2022-12-16T14:45:20;-0.30;99.90
18103;DHT22;9178;51.120;6.192;2022-12-16T14:48:18;-0.40;99.90
18103;DHT22;9178;51.120;6.192;2022-12-16T14:51:32;-0.50;99.90
18103;DHT22;9178;51.120;6.192;2022-12-16T14:54:24;-0.60;99.90
18103;DHT22;9178;51.120;6.192;2022-12-16T14:57:15;-0.60;99.90
18103;DHT22;9178;51.120;6.192;2022-12-16T15:00:11;-0.60;99.90
18103;DHT22;9178;51.120;6.192;2022-12-16T15:03:00;-0.60;99.90
18103;DHT22;9178;51.120;6.192;2022-12-16T15:05:43;-0.60;99.90
18103;DHT22;9178;51.120;6.192;2022-12-16T15:08:31;-0.60;99.90
18103;DHT22;9178;51.120;6.192;2022-12-16T15:11:19;-0.60;99.90
18103;DHT22;9178;51.120;6.192;2022-12-16T15:14:03;-0.60;99.90
18103;DHT22;9178;51.120;6.192;2022-12-16T15:16:50;-0.50;99.90
18103;DHT22;9178;51.120;6.192;2022-12-16T15:19:40;-0.50;99.90
18103;DHT22;9178;51.120;6.192;2022-12-16T15:22:29;-0.50;99.90
18103;DHT22;9178;51.120;6.192;2022-12-16T15:25:19;-0.50;99.90
18103;DHT22;9178;51.120;6.192;2022-12-16T15:28:04;-0.50;99.90
18103;DHT22;9178;51.120;6.192;2022-12-16T15:30:48;-0.50;99.90
18103;DHT22;9178;51.120;6.192;2022-12-16T15:33:34;-0.50;99.90
18103;DHT22;9178;51.120;6.192;2022-12-16T15:36:25;-0.50;99.90
18103;DHT22;9178;51.120;6.192;2022-12-16T15:39:22;-0.50;99.90
18103;DHT22;9178;51.120;6.192;2022-12-16T15:42:18;-0.50;99.90
18103;DHT22;9178;51.120;6.192;2022-12-16T15:45:04;-0.50;99.90
18103;DHT22;9178;51.120;6.192;2022-12-16T15:47:49;-0.50;99.90
18103;DHT22;9178;51.120;6.192;2022-12-16T15:50:34;-0.50;99.90
18103;DHT22;9178;51.120;6.192;2022-12-16T15:53:29;-0.50;99.90
18103;DHT22;9178;51.120;6.192;2022-12-16T15:56:20;-0.40;99.90
18103;DHT22;9178;51.120;6.192;2022-12-16T15:59:21;-0.40;99.90
18103;DHT22;9178;51.120;6.192;2022-12-16T16:02:12;-0.40;99.90
18103;DHT22;9178;51.120;6.192;2022-12-16T16:04:57;-0.50;99.90
18103;DHT22;9178;51.120;6.192;2022-12-16T16:07:42;-0.50;99.90
18103;DHT22;9178;51.120;6.192;2022-12-16T16:10:26;-0.40;99.90
18103;DHT22;9178;51.120;6.192;2022-12-16T16:13:12;-0.50;99.90
18103;DHT22;9178;51.120;6.192;2022-12-16T16:15:56;-0.40;99.90
18103;DHT22;9178;51.120;6.192;2022-12-16T16:18:41;-0.40;99.90
18103;DHT22;9178;51.120;6.192;2022-12-16T16:21:22;-0.40;99.90
18103;DHT22;9178;51.120;6.192;2022-12-16T16:24:07;-0.40;99.90
18103;DHT22;9178;51.120;6.192;2022-12-16T16:27:01;-0.40;99.90
18103;DHT22;9178;51.120;6.192;2022-12-16T16:29:48;-0.50;99.90
18103;DHT22;9178;51.120;6.192;2022-12-16T16:32:29;-0.50;99.90
18103;DHT22;9178;51.120;6.192;2022-12-16T16:35:13;-0.50;99.90
18103;DHT22;9178;51.120;6.192;2022-12-16T16:37:58;-0.50;99.90
18103;DHT22;9178;51.120;6.192;2022-12-16T16:40:43;-0.50;99.90
18103;DHT22;9178;51.120;6.192;2022-12-16T16:43:28;-0.40;99.90
18103;DHT22;9178;51.120;6.192;2022-12-16T16:46:26;-0.40;99.90
18103;DHT22;9178;51.120;6.192;2022-12-16T16:49:19;-0.40;99.90
18103;DHT22;9178;51.120;6.192;2022-12-16T16:52:04;-0.40;99.90
18103;DHT22;9178;51.120;6.192;2022-12-16T16:54:48;-0.30;99.90
18103;DHT22;9178;51.120;6.192;2022-12-16T16:57:34;-0.40;99.90
18103;DHT22;9178;51.120;6.192;2022-12-16T17:00:20;-0.40;99.90
18103;DHT22;9178;51.120;6.192;2022-12-16T17:03:05;-0.40;99.90
18103;DHT22;9178;51.120;6.192;2022-12-16T17:05:50;-0.30;99.90
18103;DHT22;9178;51.120;6.192;2022-12-16T17:08:34;-0.30;99.90
18103;DHT22;9178;51.120;6.192;2022-12-16T17:11:20;-0.40;99.90
18103;DHT22;9178;51.120;6.192;2022-12-16T17:14:05;-0.40;99.90
18103;DHT22;9178;51.120;6.192;2022-12-16T17:16:49;-0.40;99.90
18103;DHT22;9178;51.120;6.192;2022-12-16T17:19:34;-0.40;99.90
18103;DHT22;9178;51.120;6.192;2022-12-16T17:22:18;-0.30;99.90
18103;DHT22;9178;51.120;6.192;2022-12-16T17:25:04;-0.40;99.90
18103;DHT22;9178;51.120;6.192;2022-12-16T17:27:48;-0.40;99.90
18103;DHT22;9178;51.120;6.192;2022-12-16T17:30:32;-0.40;99.90
18103;DHT22;9178;51.120;6.192;2022-12-16T17:33:17;-0.40;99.90
18103;DHT22;9178;51.120;6.192;2022-12-16T17:36:03;-0.40;99.90